Ana Sayfa
METAR-TAF:

METAR-TAF

Havaalanları :

Williamsburg-Jamestown Airport

Williamsburg, Virginia, Amerika Birleşik Devletleri

Enlem: 37-14-21N, Boylam: 076-42-57W, yükseklik: 15 m

Güncel hava durumu gözlemi

Rapor saat 18:55 UTC de 27 dakika önce yapıldı.
Sakin rüzgar
Sıcaklık 34°C
Nem 63%
Basınç 1013 hPa
Görüş mesafesi: 16.1 km
Açık gökyüzü

METAR: KJGG 211855Z AUTO 00000KT 10SM CLR 34/26 A2990 RMK AO1

Saat: 15:22 (19:22 UTC)


TAF: eksik

4.000'den fazla havaalanı için hava durumu gözlemleri ve tahminleri (METAR ve TAF raporları).

Kullanılabilir istasyonlar harita üzerinde sarı ve kırmızı noktalarla gösterilir.

İstasyonun adını görmek için fareyi noktanın üzerinde gezdirin.

Sonrasında hava gözlem ve tahminlerini görmek için tıklayın.

Haritayı değiştirmek için: yaklaştırmak için siyah artı işaretli yeşil düğmeye ve uzaklaştırmak için de eksi işaretli düğmeye hızla tıklayın; bitişik haritalar için yeşil okları kullanın.


METAR-TAF: